Time;durP1;ratioP1;P1;durP2;ratioP2;P2;SDS_P1;SDS_P2;PMS_P1;PMS_P2;Temp;Humidity;BMP_temperature;BMP_pressure;BME280_temperature;BME280_humidity;BME280_pressure;Samples;Min_cycle;Max_cycle;Signal;HPM_P1;HPM_P2
2021/11/29 00:01:28;;;;;;;3.20;1.25;;;21.70;65.90;;;;;;4062226;29;21065;-58
2021/11/29 00:03:31;;;;;;;3.55;1.52;;;21.80;66.60;;;;;;4059403;28;20051;-59
2021/11/29 00:05:33;;;;;;;2.55;1.33;;;21.80;65.90;;;;;;4062495;29;20121;-57
2021/11/29 00:07:35;;;;;;;1.70;1.08;;;;;;;;;;4043813;28;20430;-55
2021/11/29 00:09:38;;;;;;;5.53;1.30;;;21.80;66.20;;;;;;4061435;28;20511;-48
2021/11/29 00:11:41;;;;;;;5.38;1.00;;;21.90;65.70;;;;;;4062105;28;20056;-50
2021/11/29 00:13:44;;;;;;;2.95;1.17;;;21.90;65.80;;;;;;4067835;28;20576;-53
2021/11/29 00:15:47;;;;;;;3.17;0.90;;;22.00;65.90;;;;;;4062877;28;20051;-49
2021/11/29 00:17:49;;;;;;;1.83;0.70;;;22.00;65.70;;;;;;4058752;29;20058;-49
2021/11/29 00:19:51;;;;;;;3.17;0.90;;;22.00;65.70;;;;;;4057312;28;20309;-52
2021/11/29 00:21:54;;;;;;;4.03;1.13;;;22.10;65.70;;;;;;4058872;29;20564;-48
2021/11/29 00:23:56;;;;;;;1.45;1.00;;;22.10;65.60;;;;;;4059431;28;20051;-51
2021/11/29 00:25:58;;;;;;;1.48;0.70;;;22.10;65.60;;;;;;4063142;28;20561;-52
2021/11/29 00:28:00;;;;;;;2.73;0.60;;;22.10;65.50;;;;;;4057702;28;20055;-56
2021/11/29 00:30:04;;;;;;;1.17;0.88;;;22.20;65.50;;;;;;4057897;29;21615;-51
2021/11/29 00:32:06;;;;;;;2.63;1.10;;;22.20;65.40;;;;;;4055081;28;20081;-55
2021/11/29 00:34:09;;;;;;;5.00;0.98;;;22.20;65.20;;;;;;4059423;29;20055;-52
2021/11/29 00:36:14;;;;;;;1.60;0.60;;;22.20;65.20;;;;;;4056755;28;20129;-55
2021/11/29 00:38:17;;;;;;;3.03;1.10;;;22.30;65.00;;;;;;4057648;28;20058;-55
2021/11/29 00:40:19;;;;;;;3.55;1.05;;;22.30;65.00;;;;;;4058904;28;20058;-57
2021/11/29 00:42:21;;;;;;;4.73;1.00;;;22.30;64.60;;;;;;4062388;29;20443;-56
2021/11/29 00:44:26;;;;;;;2.27;1.00;;;22.40;64.40;;;;;;4056841;28;20990;-57
2021/11/29 00:46:28;;;;;;;1.75;0.60;;;22.40;64.30;;;;;;4055379;28;20050;-57
2021/11/29 00:48:30;;;;;;;1.75;0.82;;;22.40;64.00;;;;;;4056365;28;20055;-56
2021/11/29 00:50:37;;;;;;;2.50;0.75;;;22.40;63.80;;;;;;4059495;29;20051;-55
2021/11/29 00:52:41;;;;;;;3.22;1.30;;;22.40;63.60;;;;;;4058445;28;20578;-52
2021/11/29 00:54:43;;;;;;;2.65;1.48;;;22.40;63.00;;;;;;4057153;29;20425;-49
2021/11/29 00:56:45;;;;;;;3.88;1.73;;;22.40;62.50;;;;;;4062632;28;20058;-56
2021/11/29 00:58:47;;;;;;;4.20;1.27;;;22.40;62.60;;;;;;4064609;28;20049;-55
2021/11/29 01:02:14;;;;;;;2.15;1.27;;;22.40;62.00;;;;;;4181874;27;20446;-54
2021/11/29 01:04:16;;;;;;;3.95;1.33;;;22.40;62.60;;;;;;4180432;28;20040;-49
2021/11/29 01:06:19;;;;;;;2.42;1.10;;;22.40;62.60;;;;;;4186414;28;20048;-60
2021/11/29 01:08:21;;;;;;;3.47;1.38;;;22.40;62.50;;;;;;4182883;28;20048;-60
2021/11/29 01:10:27;;;;;;;3.58;1.65;;;22.40;64.20;;;;;;4182268;28;20054;-59
2021/11/29 01:12:29;;;;;;;5.90;1.60;;;22.50;63.80;;;;;;4181971;28;20175;-60
2021/11/29 01:14:31;;;;;;;5.45;1.60;;;22.50;63.40;;;;;;4183965;28;20143;-61
2021/11/29 01:16:33;;;;;;;5.15;1.55;;;22.50;63.50;;;;;;4181236;28;20047;-61
2021/11/29 01:18:36;;;;;;;4.90;1.52;;;22.50;63.70;;;;;;4181613;28;20944;-60
2021/11/29 01:20:40;;;;;;;7.30;1.48;;;22.60;63.90;;;;;;4190743;28;20056;-60
2021/11/29 01:22:44;;;;;;;2.42;1.20;;;22.60;64.00;;;;;;4189099;28;20045;-59
2021/11/29 01:24:46;;;;;;;2.17;1.02;;;22.60;64.00;;;;;;4189844;28;20044;-59
2021/11/29 01:26:49;;;;;;;3.95;1.10;;;22.60;63.90;;;;;;4185627;28;22253;-59
2021/11/29 01:28:51;;;;;;;2.35;1.00;;;22.70;64.00;;;;;;4186889;28;20510;-59
2021/11/29 01:30:53;;;;;;;3.67;1.05;;;22.70;64.00;;;;;;4182864;28;20082;-59
2021/11/29 01:32:55;;;;;;;4.07;1.10;;;22.70;64.00;;;;;;4187759;28;20059;-59
2021/11/29 01:34:57;;;;;;;3.72;1.30;;;22.70;63.80;;;;;;4188933;28;20142;-60
2021/11/29 01:36:59;;;;;;;5.88;1.77;;;22.80;63.60;;;;;;4187805;28;20596;-59
2021/11/29 01:39:02;;;;;;;6.60;1.90;;;22.70;63.30;;;;;;4181802;28;20394;-60
2021/11/29 01:41:04;;;;;;;8.15;1.70;;;22.70;62.90;;;;;;4184227;28;20121;-59
2021/11/29 01:43:08;;;;;;;4.20;2.00;;;22.80;62.90;;;;;;4185107;28;20048;-59
2021/11/29 01:45:18;;;;;;;3.85;1.73;;;22.80;62.70;;;;;;4183396;28;20056;-59
2021/11/29 01:47:23;;;;;;;3.50;1.35;;;22.70;62.60;;;;;;4186302;28;20078;-60
2021/11/29 01:49:25;;;;;;;2.92;1.55;;;22.70;62.50;;;;;;4183529;28;20063;-60
2021/11/29 01:51:28;;;;;;;3.70;1.50;;;22.80;62.40;;;;;;4187061;28;20054;-60
2021/11/29 01:53:32;;;;;;;4.20;1.50;;;22.80;62.50;;;;;;4174776;28;20051;-59
2021/11/29 01:55:39;;;;;;;4.05;1.63;;;22.80;62.40;;;;;;4187134;28;20055;-59
2021/11/29 01:57:42;;;;;;;2.45;1.40;;;22.80;62.40;;;;;;4172067;28;20748;-59
2021/11/29 01:59:44;;;;;;;5.50;1.45;;;22.80;62.40;;;;;;4185592;28;20140;-59
2021/11/29 02:01:46;;;;;;;4.70;1.45;;;22.80;62.90;;;;;;4184863;28;20051;-59
2021/11/29 02:03:51;;;;;;;2.92;1.17;;;22.80;63.10;;;;;;4183463;28;20043;-59
2021/11/29 02:05:54;;;;;;;4.05;1.38;;;22.80;63.20;;;;;;4186066;28;20135;-61
2021/11/29 02:07:57;;;;;;;;;;;22.90;63.20;;;;;;4180848;28;20048;-60
2021/11/29 02:09:59;;;;;;;2.65;1.00;;;22.90;63.30;;;;;;4189680;28;19989;-61
2021/11/29 02:12:02;;;;;;;2.15;1.08;;;22.90;63.50;;;;;;4183873;28;20056;-62
2021/11/29 02:14:04;;;;;;;2.10;1.00;;;22.90;63.40;;;;;;4174081;28;20048;-62
2021/11/29 02:16:08;;;;;;;2.90;1.02;;;22.90;63.40;;;;;;4173505;28;20113;-61
2021/11/29 02:18:10;;;;;;;2.22;0.93;;;22.90;63.50;;;;;;4170581;28;20071;-60
2021/11/29 02:20:13;;;;;;;1.90;0.98;;;23.00;63.70;;;;;;4170141;28;20052;-60
2021/11/29 02:22:16;;;;;;;2.88;1.00;;;23.00;63.70;;;;;;4173237;28;20059;-60
2021/11/29 02:24:18;;;;;;;4.70;0.77;;;23.00;63.70;;;;;;4177442;28;20076;-60
2021/11/29 02:26:22;;;;;;;1.27;0.60;;;23.00;63.70;;;;;;4177590;28;20376;-60
2021/11/29 02:28:24;;;;;;;2.88;0.80;;;23.00;63.70;;;;;;4170843;28;20087;-60
2021/11/29 02:30:27;;;;;;;2.30;0.50;;;23.10;63.70;;;;;;4171106;28;20062;-60
2021/11/29 02:32:30;;;;;;;1.58;0.70;;;23.10;63.60;;;;;;4172925;28;20048;-60
2021/11/29 02:34:32;;;;;;;4.10;0.70;;;23.20;63.70;;;;;;4171072;28;20044;-60
2021/11/29 02:36:35;;;;;;;1.25;0.50;;;23.20;63.70;;;;;;4173350;28;20063;-60
2021/11/29 02:38:38;;;;;;;1.33;0.73;;;23.20;63.70;;;;;;4176776;28;20368;-59
2021/11/29 02:40:42;;;;;;;4.35;1.05;;;23.20;63.60;;;;;;4175124;28;20574;-58
2021/11/29 02:42:44;;;;;;;2.45;1.20;;;23.30;63.30;;;;;;4173961;28;20183;-59
2021/11/29 02:44:46;;;;;;;3.15;1.10;;;23.30;62.70;;;;;;4155738;28;20044;-59
2021/11/29 02:46:49;;;;;;;2.13;1.05;;;23.30;62.60;;;;;;4157119;28;20124;-58
2021/11/29 02:48:52;;;;;;;3.85;1.10;;;23.30;62.50;;;;;;4170187;28;20146;-59
2021/11/29 02:50:54;;;;;;;2.53;1.23;;;23.30;62.30;;;;;;4177584;28;20201;-59
2021/11/29 02:52:56;;;;;;;3.20;0.98;;;23.30;62.30;;;;;;4180975;28;20047;-59
2021/11/29 02:54:58;;;;;;;2.38;1.08;;;23.30;62.30;;;;;;4173690;28;20044;-60
2021/11/29 02:57:13;;;;;;;3.70;1.25;;;23.30;62.20;;;;;;4171239;28;20051;-59
2021/11/29 02:59:23;;;;;;;3.15;1.20;;;23.30;62.60;;;;;;4176417;28;20044;-61
2021/11/29 03:01:25;;;;;;;3.00;0.82;;;23.30;62.80;;;;;;4177375;28;20117;-59
2021/11/29 03:03:27;;;;;;;5.03;1.08;;;23.30;62.90;;;;;;4173234;28;20665;-59
2021/11/29 03:05:29;;;;;;;2.78;0.82;;;23.40;63.00;;;;;;4171784;28;20169;-59
2021/11/29 03:07:31;;;;;;;4.15;0.93;;;23.40;63.00;;;;;;4170636;28;20470;-60
2021/11/29 03:09:34;;;;;;;5.47;1.07;;;23.40;63.10;;;;;;4173607;28;20112;-61
2021/11/29 03:11:37;;;;;;;2.47;0.90;;;23.40;63.00;;;;;;4174895;28;20064;-61
2021/11/29 03:13:39;;;;;;;0.70;0.40;;;23.40;63.20;;;;;;4176741;28;20316;-61
2021/11/29 03:15:47;;;;;;;2.05;1.00;;;23.50;63.10;;;;;;4177040;28;20048;-60
2021/11/29 03:17:49;;;;;;;2.88;0.80;;;;;;;;;;4174751;28;20400;-60
2021/11/29 03:19:51;;;;;;;0.98;0.60;;;;;;;;;;4174050;28;20574;-59
2021/11/29 03:21:53;;;;;;;0.88;0.40;;;23.50;63.10;;;;;;4172603;28;20055;-61
2021/11/29 03:24:01;;;;;;;4.13;0.88;;;23.60;63.60;;;;;;4174038;28;20047;-60
2021/11/29 03:26:07;;;;;;;1.25;0.60;;;;;;;;;;4173951;28;20047;-60
2021/11/29 03:28:09;;;;;;;2.83;0.70;;;;;;;;;;4175147;28;20051;-60
2021/11/29 03:30:11;;;;;;;2.80;0.82;;;;;;;;;;4173442;28;20137;-61
2021/11/29 03:32:13;;;;;;;7.95;0.93;;;;;;;;;;4180938;28;20385;-62
2021/11/29 03:34:16;;;;;;;0.63;0.50;;;23.60;63.30;;;;;;4180796;28;20846;-62
2021/11/29 03:36:18;;;;;;;1.43;0.63;;;23.80;63.50;;;;;;4177800;28;20044;-63
2021/11/29 03:38:20;;;;;;;1.17;0.50;;;23.80;63.00;;;;;;4176359;28;20167;-64
2021/11/29 03:40:22;;;;;;;1.35;0.63;;;23.80;63.10;;;;;;4173995;28;20074;-60
2021/11/29 03:42:24;;;;;;;6.03;0.57;;;23.90;63.00;;;;;;4178001;28;20051;-68
2021/11/29 03:44:27;;;;;;;3.70;0.70;;;23.90;62.90;;;;;;4180503;28;20047;-64
2021/11/29 03:46:29;;;;;;;2.67;0.60;;;23.90;63.00;;;;;;4180137;28;20383;-67
2021/11/29 03:48:31;;;;;;;3.43;0.83;;;23.90;62.90;;;;;;4174449;28;21325;-65
2021/11/29 03:50:34;;;;;;;2.17;0.95;;;24.00;62.80;;;;;;4172717;28;20950;-64
2021/11/29 03:52:36;;;;;;;2.97;1.08;;;24.00;62.90;;;;;;4173770;28;20812;-63
2021/11/29 03:54:38;;;;;;;3.03;0.83;;;24.00;62.80;;;;;;4172100;28;20138;-62
2021/11/29 03:56:41;;;;;;;1.45;0.68;;;24.00;62.90;;;;;;4171958;28;20055;-63
2021/11/29 03:58:43;;;;;;;4.50;0.63;;;24.00;62.90;;;;;;4175626;28;20056;-63
2021/11/29 04:02:12;;;;;;;2.42;0.85;;;24.10;62.50;;;;;;4182028;27;20473;-52
2021/11/29 04:04:14;;;;;;;1.90;0.50;;;24.10;63.00;;;;;;4185359;28;20044;-51
2021/11/29 04:06:17;;;;;;;1.80;0.43;;;24.10;63.00;;;;;;4185371;28;20431;-46
2021/11/29 04:08:19;;;;;;;0.60;0.50;;;24.20;63.00;;;;;;4185657;28;20090;-50
2021/11/29 04:10:22;;;;;;;9.40;0.82;;;24.20;63.10;;;;;;4180217;28;20044;-51
2021/11/29 04:12:24;;;;;;;1.50;0.60;;;24.20;63.10;;;;;;4168602;28;20060;-50
2021/11/29 04:14:26;;;;;;;1.40;0.70;;;24.20;62.90;;;;;;4148445;28;21550;-51
2021/11/29 04:16:28;;;;;;;2.20;0.50;;;24.20;63.00;;;;;;4165426;28;20418;-54
2021/11/29 04:18:31;;;;;;;2.90;0.40;;;24.20;62.90;;;;;;4145780;28;20044;-50
2021/11/29 04:20:33;;;;;;;3.50;0.77;;;24.30;62.80;;;;;;4166755;28;20071;-53
2021/11/29 04:22:37;;;;;;;0.82;0.40;;;24.30;62.80;;;;;;4168753;28;20051;-53
2021/11/29 04:24:41;;;;;;;1.13;0.82;;;24.30;63.00;;;;;;4169270;28;20754;-53
2021/11/29 04:26:50;;;;;;;2.15;0.65;;;24.30;62.90;;;;;;4165094;28;20052;-50
2021/11/29 04:28:54;;;;;;;3.95;1.15;;;24.40;63.00;;;;;;4164318;28;20078;-47
2021/11/29 04:30:57;;;;;;;2.10;0.82;;;24.40;62.50;;;;;;4162581;28;20118;-51
2021/11/29 04:32:59;;;;;;;2.38;0.73;;;24.40;62.50;;;;;;4161179;28;20100;-52
2021/11/29 04:35:02;;;;;;;3.20;0.60;;;24.40;62.70;;;;;;4163440;28;20059;-49
2021/11/29 04:37:05;;;;;;;3.10;0.70;;;24.40;62.50;;;;;;4161051;28;20184;-48
2021/11/29 04:39:07;;;;;;;2.47;0.45;;;24.40;62.50;;;;;;4160292;28;20560;-50
2021/11/29 04:41:09;;;;;;;2.10;0.60;;;24.40;62.60;;;;;;4163378;28;20052;-47
2021/11/29 04:43:11;;;;;;;1.67;0.68;;;24.40;62.70;;;;;;4145822;28;20100;-46
2021/11/29 04:45:14;;;;;;;3.80;0.80;;;24.40;62.70;;;;;;4161083;28;20839;-46
2021/11/29 04:47:16;;;;;;;2.13;0.60;;;24.40;62.70;;;;;;4162989;28;20152;-47
2021/11/29 04:49:18;;;;;;;3.83;0.75;;;24.40;62.70;;;;;;4159375;28;20060;-46
2021/11/29 04:51:20;;;;;;;1.63;0.52;;;24.40;62.70;;;;;;4163089;28;20055;-48
2021/11/29 04:53:22;;;;;;;3.53;0.90;;;24.40;62.70;;;;;;4162615;28;20119;-51
2021/11/29 04:55:25;;;;;;;0.90;0.53;;;24.40;62.70;;;;;;4166755;28;20052;-50
2021/11/29 04:57:27;;;;;;;2.75;0.90;;;24.40;62.70;;;;;;4162174;28;20293;-48
2021/11/29 04:59:29;;;;;;;2.05;0.68;;;24.40;62.70;;;;;;4157523;28;20052;-47
2021/11/29 05:01:31;;;;;;;2.50;0.70;;;24.40;62.70;;;;;;4155743;28;20071;-51
2021/11/29 05:03:33;;;;;;;4.23;0.77;;;24.40;62.70;;;;;;4157361;28;20048;-49
2021/11/29 05:05:36;;;;;;;1.38;0.50;;;24.40;62.70;;;;;;4157104;28;20542;-49
2021/11/29 05:07:38;;;;;;;1.30;0.70;;;24.40;62.60;;;;;;4164601;28;20377;-49
2021/11/29 05:09:42;;;;;;;1.73;0.70;;;24.40;62.60;;;;;;4158303;28;20087;-48
2021/11/29 05:11:44;;;;;;;2.53;0.70;;;24.40;62.60;;;;;;4157169;28;20056;-48
2021/11/29 05:13:46;;;;;;;1.02;0.60;;;24.40;63.40;;;;;;4147516;28;20079;-45
2021/11/29 05:15:48;;;;;;;1.40;0.77;;;24.40;62.60;;;;;;4148091;28;20076;-46
2021/11/29 05:17:50;;;;;;;3.87;0.80;;;24.40;63.00;;;;;;4147978;28;20144;-47
2021/11/29 05:19:53;;;;;;;5.32;1.30;;;24.40;62.80;;;;;;4154199;28;20072;-49
2021/11/29 05:21:58;;;;;;;6.38;1.17;;;24.40;62.70;;;;;;4134207;28;20061;-46
2021/11/29 05:24:02;;;;;;;2.42;0.65;;;24.40;62.80;;;;;;4149890;28;20400;-49
2021/11/29 05:26:04;;;;;;;;;;;24.50;63.00;;;;;;4148082;28;20060;-48
2021/11/29 05:28:07;;;;;;;1.90;0.80;;;24.50;63.10;;;;;;4152921;28;19924;-48
2021/11/29 05:30:09;;;;;;;0.68;0.50;;;24.50;63.10;;;;;;4128143;28;20768;-48
2021/11/29 05:32:11;;;;;;;3.40;0.87;;;24.50;63.10;;;;;;4148035;28;20871;-55
2021/11/29 05:34:14;;;;;;;3.17;1.35;;;24.50;63.00;;;;;;4152894;28;20148;-49
2021/11/29 05:36:17;;;;;;;3.20;1.50;;;24.50;63.00;;;;;;4152438;28;20580;-53
2021/11/29 05:38:19;;;;;;;;;;;24.50;63.00;;;;;;4147393;28;20048;-49
2021/11/29 05:40:21;;;;;;;3.67;1.45;;;24.50;63.00;;;;;;4145853;28;19925;-48
2021/11/29 05:42:23;;;;;;;4.93;2.08;;;24.60;63.20;;;;;;4149154;28;20075;-47
2021/11/29 05:44:26;;;;;;;3.88;1.77;;;24.60;62.80;;;;;;4147086;28;20044;-47
2021/11/29 05:46:28;;;;;;;5.75;1.90;;;24.60;62.70;;;;;;4151934;28;20501;-51
2021/11/29 05:48:30;;;;;;;3.72;1.77;;;24.60;62.80;;;;;;4149301;28;20068;-47
2021/11/29 05:50:33;;;;;;;3.75;1.75;;;24.60;62.90;;;;;;4127940;28;20050;-48
2021/11/29 05:52:35;;;;;;;3.72;1.55;;;24.60;62.90;;;;;;4149823;28;20071;-50
2021/11/29 05:54:37;;;;;;;2.55;1.73;;;24.60;62.90;;;;;;4147862;28;20056;-52
2021/11/29 05:56:39;;;;;;;7.22;2.50;;;24.60;62.80;;;;;;4147944;28;20048;-49
2021/11/29 05:58:42;;;;;;;8.38;2.95;;;24.60;62.20;;;;;;4149765;28;20157;-53
2021/11/29 06:00:44;;;;;;;6.97;3.67;;;24.60;61.50;;;;;;4151878;28;20060;-52
2021/11/29 06:02:47;;;;;;;9.13;3.58;;;24.60;61.00;;;;;;4147862;28;20057;-51
2021/11/29 06:04:49;;;;;;;5.50;3.47;;;24.60;60.70;;;;;;4125765;28;20082;-46
2021/11/29 06:06:51;;;;;;;6.82;3.25;;;24.60;60.30;;;;;;4146267;28;20048;-53
2021/11/29 06:08:53;;;;;;;8.93;3.40;;;24.60;60.20;;;;;;4144679;28;21165;-48
2021/11/29 06:10:55;;;;;;;5.18;2.67;;;24.60;60.10;;;;;;4147019;28;20098;-51
2021/11/29 06:12:57;;;;;;;7.00;2.80;;;24.50;59.90;;;;;;4150684;28;20063;-53
2021/11/29 06:15:00;;;;;;;6.13;2.75;;;24.50;59.90;;;;;;4149692;28;21143;-46
2021/11/29 06:17:02;;;;;;;12.45;3.30;;;24.50;60.10;;;;;;4144553;28;20048;-43
2021/11/29 06:19:07;;;;;;;9.88;3.13;;;24.50;60.30;;;;;;4146481;28;20103;-43
2021/11/29 06:21:10;;;;;;;11.18;3.08;;;24.50;60.80;;;;;;4146857;28;20134;-49
2021/11/29 06:23:12;;;;;;;10.52;3.33;;;24.50;61.00;;;;;;4145659;28;20040;-46
2021/11/29 06:25:14;;;;;;;6.53;2.55;;;24.50;60.70;;;;;;4145944;28;20091;-48
2021/11/29 06:27:17;;;;;;;5.05;3.00;;;24.50;60.50;;;;;;4152570;28;20193;-48
2021/11/29 06:29:19;;;;;;;6.38;3.13;;;24.40;60.40;;;;;;4148848;28;20056;-44
2021/11/29 06:31:21;;;;;;;9.38;2.63;;;24.40;60.50;;;;;;4143784;28;21434;-47
2021/11/29 06:33:23;;;;;;;8.77;2.85;;;24.40;60.50;;;;;;4149434;28;21055;-44
2021/11/29 06:35:26;;;;;;;5.20;2.30;;;24.40;60.40;;;;;;4143476;28;20627;-48
2021/11/29 06:37:29;;;;;;;5.77;3.03;;;24.40;60.40;;;;;;4143644;28;20052;-45
2021/11/29 06:39:35;;;;;;;3.72;1.88;;;24.40;60.00;;;;;;4147197;28;20502;-48
2021/11/29 06:41:37;;;;;;;4.28;2.38;;;24.30;60.50;;;;;;4150667;28;20045;-48
2021/11/29 06:43:39;;;;;;;4.20;2.10;;;24.30;60.50;;;;;;4144089;28;20343;-45
2021/11/29 06:45:41;;;;;;;5.10;2.33;;;24.30;60.60;;;;;;4144069;28;20057;-44
2021/11/29 06:47:44;;;;;;;4.97;2.03;;;24.30;60.50;;;;;;4125612;28;20045;-44
2021/11/29 06:49:47;;;;;;;5.10;2.35;;;24.30;60.60;;;;;;4144329;28;20048;-49
2021/11/29 06:51:49;;;;;;;;;;;24.30;60.60;;;;;;4145985;28;20057;-44
2021/11/29 06:53:51;;;;;;;5.13;2.10;;;24.30;60.60;;;;;;4150466;28;19981;-47
2021/11/29 06:55:56;;;;;;;3.60;1.80;;;24.20;60.50;;;;;;4148907;28;20052;-45
2021/11/29 06:57:58;;;;;;;3.92;1.92;;;24.20;60.50;;;;;;4146573;28;20049;-44
2021/11/29 07:00:00;;;;;;;3.97;2.22;;;24.20;60.50;;;;;;4146203;28;20060;-47
2021/11/29 08:04:47;;;;;;;2.92;1.38;;;23.90;59.80;;;;;;4979783;23;20098;-43
2021/11/29 08:06:49;;;;;;;5.68;1.50;;;23.90;59.90;;;;;;4975718;23;20035;-43
2021/11/29 08:08:51;;;;;;;5.00;1.40;;;23.90;59.90;;;;;;4970161;23;20031;-45
2021/11/29 08:10:53;;;;;;;3.47;1.48;;;23.90;60.40;;;;;;4957286;23;20028;-44
2021/11/29 08:12:58;;;;;;;3.53;1.35;;;23.90;59.90;;;;;;4946477;23;20617;-44
2021/11/29 08:15:00;;;;;;;2.65;1.20;;;23.90;59.90;;;;;;4940483;23;20035;-44
2021/11/29 08:17:02;;;;;;;2.33;1.20;;;23.80;59.80;;;;;;4937530;23;20680;-45
2021/11/29 08:19:05;;;;;;;3.38;1.30;;;23.80;59.80;;;;;;4939725;23;20633;-45
2021/11/29 08:21:07;;;;;;;3.42;1.27;;;23.80;59.80;;;;;;4938186;23;20042;-44
2021/11/29 08:23:09;;;;;;;3.33;1.40;;;23.80;59.80;;;;;;4935927;23;20031;-45
2021/11/29 08:25:11;;;;;;;4.13;1.15;;;23.80;59.70;;;;;;4939607;23;20677;-46
2021/11/29 08:27:13;;;;;;;4.47;1.45;;;23.80;59.80;;;;;;4945219;23;20038;-49
2021/11/29 08:29:16;;;;;;;2.85;1.40;;;23.80;59.80;;;;;;4938758;23;20224;-43
2021/11/29 08:31:18;;;;;;;3.70;1.43;;;23.80;59.80;;;;;;4936504;23;20024;-44
2021/11/29 08:33:20;;;;;;;2.92;1.10;;;23.80;59.90;;;;;;4938258;23;20612;-45
2021/11/29 08:35:23;;;;;;;3.70;1.33;;;23.80;59.90;;;;;;4939100;23;20087;-48
2021/11/29 08:37:26;;;;;;;3.30;1.08;;;23.80;59.90;;;;;;4937911;23;20084;-44
2021/11/29 08:39:28;;;;;;;4.77;1.57;;;23.80;59.90;;;;;;4944369;23;20028;-45
2021/11/29 08:41:31;;;;;;;2.95;1.33;;;23.70;60.50;;;;;;4940577;23;20027;-43
2021/11/29 08:43:33;;;;;;;;;;;23.70;59.80;;;;;;4940471;23;20682;-43
2021/11/29 08:45:36;;;;;;;1.40;0.90;;;23.70;59.90;;;;;;4934072;23;19929;-43
2021/11/29 08:47:39;;;;;;;3.80;1.40;;;23.70;59.90;;;;;;4935229;23;20031;-47
2021/11/29 08:49:43;;;;;;;5.45;1.95;;;23.70;59.90;;;;;;4932114;23;20031;-43
2021/11/29 08:51:47;;;;;;;1.60;0.90;;;23.70;60.00;;;;;;4933240;23;20663;-44
2021/11/29 08:53:49;;;;;;;2.55;0.82;;;23.70;60.10;;;;;;4906752;24;20040;-45
2021/11/29 08:55:52;;;;;;;1.67;0.87;;;23.70;60.20;;;;;;4934465;23;20034;-44
2021/11/29 08:57:54;;;;;;;3.10;1.10;;;23.70;60.20;;;;;;4928089;23;20030;-45
2021/11/29 08:59:56;;;;;;;3.58;1.00;;;23.60;60.20;;;;;;4931450;23;20426;-44
2021/11/29 09:01:58;;;;;;;3.97;1.30;;;23.70;60.30;;;;;;4933028;23;20035;-47
2021/11/29 09:04:01;;;;;;;2.33;1.20;;;23.60;60.30;;;;;;4932904;23;20028;-51
2021/11/29 09:06:04;;;;;;;4.05;1.27;;;23.60;60.20;;;;;;4937036;23;20031;-43
2021/11/29 09:08:07;;;;;;;2.78;1.00;;;23.60;60.20;;;;;;4913346;24;20067;-44
2021/11/29 09:10:10;;;;;;;4.35;1.30;;;23.60;60.20;;;;;;4913241;23;20042;-45
2021/11/29 09:12:15;;;;;;;3.90;1.40;;;23.60;60.20;;;;;;4908841;24;20040;-46
2021/11/29 09:14:17;;;;;;;1.95;1.08;;;23.60;60.20;;;;;;4933028;23;20043;-45
2021/11/29 09:16:19;;;;;;;2.63;1.00;;;23.60;60.20;;;;;;4933031;23;20084;-44
2021/11/29 09:18:21;;;;;;;3.63;1.27;;;23.60;60.20;;;;;;4933434;23;20035;-46
2021/11/29 09:20:25;;;;;;;3.60;1.40;;;23.60;60.10;;;;;;4908717;24;20073;-46
2021/11/29 09:22:28;;;;;;;3.00;1.27;;;23.60;60.10;;;;;;4937557;23;20879;-46
2021/11/29 09:24:30;;;;;;;4.28;1.25;;;23.60;60.10;;;;;;4936950;23;20032;-45
2021/11/29 09:26:32;;;;;;;4.20;1.27;;;23.60;60.10;;;;;;4932819;23;20493;-44
2021/11/29 09:28:35;;;;;;;1.92;1.20;;;23.60;60.10;;;;;;4935730;23;20383;-49
2021/11/29 09:30:38;;;;;;;3.53;1.10;;;23.50;60.00;;;;;;4931029;23;20028;-43
2021/11/29 09:32:40;;;;;;;2.38;1.02;;;23.50;60.00;;;;;;4931759;23;20035;-43
2021/11/29 09:34:43;;;;;;;3.17;1.25;;;23.50;60.00;;;;;;4933705;23;20163;-49
2021/11/29 09:36:45;;;;;;;3.10;1.30;;;23.50;60.00;;;;;;4940066;23;20038;-46
2021/11/29 09:38:48;;;;;;;3.30;1.57;;;23.50;60.00;;;;;;4936631;23;20031;-47
2021/11/29 09:40:50;;;;;;;2.45;1.20;;;23.50;60.10;;;;;;4935539;23;20297;-47
2021/11/29 09:42:53;;;;;;;2.08;1.27;;;23.50;60.00;;;;;;4934756;23;20042;-44
2021/11/29 09:44:54;;;;;;;;;;;23.50;60.10;;;;;;4935359;23;20090;-45
2021/11/29 09:46:56;;;;;;;4.18;1.17;;;23.50;60.00;;;;;;4932918;23;19941;-44
2021/11/29 09:48:59;;;;;;;3.45;1.20;;;23.50;60.00;;;;;;4937445;23;20032;-47
2021/11/29 09:51:02;;;;;;;4.03;1.40;;;23.50;60.80;;;;;;4936976;23;20112;-44
2021/11/29 09:53:05;;;;;;;3.73;1.67;;;23.50;60.00;;;;;;4933810;23;20296;-46
2021/11/29 09:55:10;;;;;;;3.05;1.10;;;23.50;60.00;;;;;;4932589;23;20027;-48
2021/11/29 09:57:12;;;;;;;2.78;1.23;;;23.50;60.00;;;;;;4933223;23;20097;-45
2021/11/29 09:59:14;;;;;;;2.33;1.10;;;23.50;60.00;;;;;;4933823;23;20034;-47
2021/11/29 10:02:14;;;;;;;4.05;1.35;;;23.40;59.50;;;;;;4105149;28;20459;-46
2021/11/29 10:04:16;;;;;;;2.90;1.30;;;23.40;60.10;;;;;;4100965;28;20164;-45
2021/11/29 10:06:18;;;;;;;2.63;1.17;;;23.40;60.10;;;;;;4099546;28;20054;-48
2021/11/29 10:08:29;;;;;;;2.38;1.13;;;23.40;60.10;;;;;;4098286;28;20077;-43
2021/11/29 10:10:32;;;;;;;3.83;1.30;;;23.40;60.20;;;;;;4103729;28;22015;-46
2021/11/29 10:12:34;;;;;;;2.85;1.30;;;23.40;60.20;;;;;;4102211;28;20054;-46
2021/11/29 10:14:39;;;;;;;4.28;1.25;;;23.40;60.20;;;;;;4107039;28;20056;-47
2021/11/29 10:16:46;;;;;;;2.85;1.17;;;23.40;60.70;;;;;;4104363;28;20551;-43
2021/11/29 10:18:48;;;;;;;3.00;1.35;;;23.40;60.30;;;;;;4102925;28;20055;-45
2021/11/29 10:20:56;;;;;;;2.38;1.10;;;23.40;60.50;;;;;;4105965;28;20431;-44
2021/11/29 10:23:04;;;;;;;2.97;1.20;;;23.30;60.20;;;;;;4106040;28;20810;-43
2021/11/29 10:25:17;;;;;;;3.20;1.20;;;23.30;60.90;;;;;;4102621;28;20104;-42
2021/11/29 10:27:35;;;;;;;3.20;1.42;;;23.30;60.30;;;;;;4097919;28;20110;-48
2021/11/29 10:29:37;;;;;;;2.72;1.27;;;23.30;60.40;;;;;;4096831;28;20614;-43
2021/11/29 10:31:51;;;;;;;3.33;1.27;;;23.30;60.40;;;;;;4096704;28;20046;-47
2021/11/29 10:33:58;;;;;;;3.22;1.25;;;23.30;60.30;;;;;;4096338;28;20057;-44
2021/11/29 10:36:14;;;;;;;3.50;1.30;;;23.30;60.30;;;;;;4098048;28;20073;-42
2021/11/29 10:38:29;;;;;;;1.40;0.80;;;23.30;60.40;;;;;;4102369;28;20088;-44
2021/11/29 10:40:32;;;;;;;3.80;1.38;;;23.30;60.60;;;;;;4096601;28;20070;-46
2021/11/29 10:42:35;;;;;;;2.40;1.00;;;23.30;60.50;;;;;;4100105;28;20098;-44
2021/11/29 10:44:41;;;;;;;3.78;1.30;;;23.30;60.40;;;;;;4104097;28;20069;-45
2021/11/29 10:46:49;;;;;;;3.45;1.33;;;23.30;60.50;;;;;;4102827;28;20058;-44
2021/11/29 10:48:53;;;;;;;2.30;1.33;;;23.30;60.50;;;;;;4105968;28;20125;-48
2021/11/29 10:51:09;;;;;;;2.47;1.33;;;23.30;61.20;;;;;;4099879;28;20645;-43
2021/11/29 10:53:12;;;;;;;3.78;1.33;;;23.30;60.70;;;;;;4102327;28;20764;-50
2021/11/29 10:55:15;;;;;;;6.00;1.58;;;23.30;60.60;;;;;;4100257;28;20070;-50
2021/11/29 10:57:19;;;;;;;3.67;1.42;;;23.30;60.90;;;;;;4097097;28;20050;-51
2021/11/29 10:59:25;;;;;;;2.63;1.38;;;23.20;61.40;;;;;;4096994;28;20810;-47
2021/11/29 11:01:36;;;;;;;9.15;1.85;;;23.30;61.60;;;;;;4111142;28;20177;-45
2021/11/29 11:03:57;;;;;;;6.60;1.60;;;23.30;62.00;;;;;;4119348;28;20061;-53
2021/11/29 11:06:05;;;;;;;20.00;1.63;;;23.30;62.30;;;;;;4117797;28;20053;-53
2021/11/29 11:08:10;;;;;;;2.85;0.88;;;23.30;62.40;;;;;;4114955;28;20052;-45
2021/11/29 11:10:14;;;;;;;2.13;0.90;;;23.30;62.50;;;;;;4118538;28;20562;-49
2021/11/29 11:12:17;;;;;;;3.65;1.05;;;23.30;62.50;;;;;;4114896;28;20064;-51
2021/11/29 11:14:26;;;;;;;;;;;23.30;62.60;;;;;;4112703;28;20068;-49
2021/11/29 11:16:43;;;;;;;2.22;0.77;;;23.40;62.70;;;;;;4113585;28;19987;-53
2021/11/29 11:18:45;;;;;;;4.93;1.40;;;23.40;62.70;;;;;;4106575;28;20054;-48
2021/11/29 11:20:51;;;;;;;7.60;1.92;;;23.40;62.50;;;;;;4104806;28;20054;-47
2021/11/29 11:22:55;;;;;;;5.57;1.30;;;23.40;62.40;;;;;;4104304;28;20100;-54
2021/11/29 11:25:08;;;;;;;6.13;1.52;;;23.40;62.20;;;;;;4109463;28;20045;-53
2021/11/29 11:27:10;;;;;;;;;;;23.40;62.30;;;;;;4105495;28;20042;-51
2021/11/29 11:29:31;;;;;;;4.75;1.10;;;23.40;62.10;;;;;;4107554;28;19930;-54
2021/11/29 11:31:34;;;;;;;2.88;1.15;;;23.40;61.90;;;;;;4105169;28;20058;-48
2021/11/29 11:33:58;;;;;;;3.80;1.17;;;23.40;61.80;;;;;;4102718;28;20115;-53
2021/11/29 11:36:00;;;;;;;4.22;1.60;;;23.40;61.90;;;;;;4105958;28;20054;-51
2021/11/29 11:38:09;;;;;;;6.05;1.35;;;23.40;61.90;;;;;;4101504;28;20080;-53
2021/11/29 11:40:14;;;;;;;3.47;1.50;;;23.40;61.90;;;;;;4105919;28;20104;-54
2021/11/29 11:42:18;;;;;;;4.63;1.42;;;23.40;61.80;;;;;;4110736;28;20054;-54
2021/11/29 11:44:21;;;;;;;2.85;1.30;;;23.40;62.00;;;;;;4107933;28;20061;-55
2021/11/29 11:46:25;;;;;;;3.83;1.02;;;23.40;62.00;;;;;;4107725;28;20053;-56
2021/11/29 11:48:27;;;;;;;2.08;1.08;;;23.40;62.00;;;;;;4109173;28;20149;-52
2021/11/29 11:50:36;;;;;;;3.83;1.20;;;23.40;61.90;;;;;;4110156;28;20056;-56
2021/11/29 11:52:40;;;;;;;3.70;1.33;;;23.40;62.00;;;;;;4106688;28;20064;-51